EWG8J LOWW-EDDL
Flight info
| Callsign | EWG8J |
|---|---|
| Flight time | N/A |
| Altitude | 36000 |
| Route | BUWUT DCT DITIS DCT RAPET T843 VELIS DCT AMETU T852 TINSA T854 DOMUX DOMUX1A |
| Aircraft | A319/M-SDE3FGHIRWY/LB1 |
Departure
| Time | 2026-05-04 17:28 |
|---|---|
| Airport | Vienna International Airport (LOWW) |
Arrival
| Time | N/A |
|---|---|
| Airport | Düsseldorf Airport (EDDL) |
| Time | Latitude | Longitude | Altitude | Speed | Heading |
|---|---|---|---|---|---|
| 2026-05-04 17:02 | 48.11827 | 16.56988 | 602 ft | 0 kts | 206° |
| 2026-05-04 17:19 | 48.11827 | 16.56989 | 601 ft | 0 kts | 206° |
| 2026-05-04 17:20 | 48.11853 | 16.57007 | 600 ft | 2 kts | 206° |
| 2026-05-04 17:20 | 48.11877 | 16.57017 | 599 ft | 2 kts | 172° |
| 2026-05-04 17:20 | 48.11891 | 16.57010 | 598 ft | 2 kts | 148° |
| 2026-05-04 17:21 | 48.11905 | 16.56986 | 597 ft | 1 kts | 111° |
| 2026-05-04 17:21 | 48.11907 | 16.56980 | 597 ft | 0 kts | 116° |
| 2026-05-04 17:23 | 48.11903 | 16.56992 | 597 ft | 2 kts | 117° |
| 2026-05-04 17:24 | 48.11894 | 16.57020 | 598 ft | 4 kts | 117° |
| 2026-05-04 17:24 | 48.11855 | 16.57190 | 597 ft | 6 kts | 98° |
| 2026-05-04 17:25 | 48.11840 | 16.57274 | 596 ft | 9 kts | 89° |
| 2026-05-04 17:25 | 48.11966 | 16.57293 | 591 ft | 11 kts | 22° |
| 2026-05-04 17:26 | 48.12000 | 16.57563 | 589 ft | 14 kts | 104° |
| 2026-05-04 17:26 | 48.11910 | 16.57848 | 590 ft | 0 kts | 164° |
| 2026-05-04 17:27 | 48.11613 | 16.57976 | 592 ft | 81 kts | 165° |
| 2026-05-04 17:27 | 48.09857 | 16.58732 | 1049 ft | 153 kts | 163° |
| 2026-05-04 17:28 | 48.07894 | 16.59563 | 2564 ft | 147 kts | 165° |
| 2026-05-04 17:29 | 48.05021 | 16.62218 | 4344 ft | 186 kts | 124° |
| 2026-05-04 17:29 | 48.05332 | 16.68033 | 6361 ft | 215 kts | 51° |
| 2026-05-04 17:30 | 48.09204 | 16.72456 | 7894 ft | 262 kts | 37° |
| 2026-05-04 17:31 | 48.12336 | 16.75884 | 8950 ft | 298 kts | 37° |
| 2026-05-04 17:31 | 48.18172 | 16.78714 | 10999 ft | 322 kts | 348° |
| 2026-05-04 17:32 | 48.22749 | 16.77261 | 11846 ft | 354 kts | 339° |
| 2026-05-04 17:33 | 48.27336 | 16.69105 | 14161 ft | 353 kts | 295° |
| 2026-05-04 17:33 | 48.28493 | 16.65835 | 14901 ft | 357 kts | 296° |
| 2026-05-04 17:34 | 48.32238 | 16.56071 | 16984 ft | 368 kts | 299° |
| 2026-05-04 17:34 | 48.33557 | 16.52779 | 17618 ft | 372 kts | 299° |
| 2026-05-04 17:35 | 48.37637 | 16.42709 | 19527 ft | 380 kts | 300° |
| 2026-05-04 17:35 | 48.40389 | 16.35943 | 20732 ft | 385 kts | 301° |
| 2026-05-04 17:35 | 48.41789 | 16.32496 | 21306 ft | 388 kts | 300° |
| 2026-05-04 17:36 | 48.43189 | 16.29049 | 21869 ft | 390 kts | 300° |
| 2026-05-04 17:36 | 48.44605 | 16.25557 | 22425 ft | 392 kts | 300° |
| 2026-05-04 17:36 | 48.46022 | 16.22057 | 22963 ft | 394 kts | 300° |
| 2026-05-04 17:36 | 48.47473 | 16.18599 | 23471 ft | 397 kts | 303° |
| 2026-05-04 17:37 | 48.49086 | 16.15196 | 24003 ft | 399 kts | 305° |
| 2026-05-04 17:37 | 48.50740 | 16.11798 | 24513 ft | 402 kts | 305° |
| 2026-05-04 17:37 | 48.52383 | 16.08415 | 25003 ft | 404 kts | 305° |
| 2026-05-04 17:37 | 48.54042 | 16.04976 | 25458 ft | 407 kts | 305° |
| 2026-05-04 17:38 | 48.55699 | 16.01524 | 25897 ft | 409 kts | 305° |
| 2026-05-04 17:38 | 48.57369 | 15.98028 | 26339 ft | 412 kts | 305° |
| 2026-05-04 17:38 | 48.59018 | 15.94563 | 26756 ft | 414 kts | 305° |
| 2026-05-04 17:38 | 48.60710 | 15.91002 | 27174 ft | 417 kts | 305° |
| 2026-05-04 17:39 | 48.64100 | 15.83841 | 27972 ft | 422 kts | 305° |
| 2026-05-04 17:39 | 48.65796 | 15.80251 | 28374 ft | 423 kts | 305° |
| 2026-05-04 17:39 | 48.67490 | 15.76655 | 28752 ft | 426 kts | 305° |
| 2026-05-04 17:40 | 48.69221 | 15.72978 | 29144 ft | 427 kts | 305° |
| 2026-05-04 17:40 | 48.70934 | 15.69335 | 29497 ft | 430 kts | 305° |
| 2026-05-04 17:40 | 48.72676 | 15.65625 | 29852 ft | 432 kts | 305° |
| 2026-05-04 17:40 | 48.74406 | 15.61936 | 30289 ft | 431 kts | 305° |
| 2026-05-04 17:41 | 48.76127 | 15.58263 | 30796 ft | 429 kts | 305° |
| 2026-05-04 17:41 | 48.77843 | 15.54594 | 31288 ft | 427 kts | 305° |
| 2026-05-04 17:41 | 48.79559 | 15.50921 | 31740 ft | 426 kts | 305° |
| 2026-05-04 17:41 | 48.81260 | 15.47271 | 32178 ft | 425 kts | 305° |
| 2026-05-04 17:42 | 48.82969 | 15.43602 | 32614 ft | 424 kts | 305° |
| 2026-05-04 17:42 | 48.84643 | 15.40003 | 33038 ft | 422 kts | 304° |
| 2026-05-04 17:42 | 48.86325 | 15.36380 | 33452 ft | 421 kts | 305° |
| 2026-05-04 17:42 | 48.88010 | 15.32745 | 33833 ft | 420 kts | 304° |
| 2026-05-04 17:43 | 48.89684 | 15.29133 | 34201 ft | 420 kts | 304° |
| 2026-05-04 17:43 | 48.91361 | 15.25503 | 34503 ft | 421 kts | 304° |
| 2026-05-04 17:43 | 48.93033 | 15.21882 | 34739 ft | 423 kts | 304° |
| 2026-05-04 17:43 | 48.94716 | 15.18234 | 34954 ft | 424 kts | 304° |
| 2026-05-04 17:44 | 48.96418 | 15.14536 | 35166 ft | 425 kts | 304° |
| 2026-05-04 17:44 | 48.98106 | 15.10868 | 35384 ft | 426 kts | 304° |
| 2026-05-04 17:44 | 48.99803 | 15.07173 | 35586 ft | 427 kts | 304° |
| 2026-05-04 17:44 | 49.01503 | 15.03467 | 35774 ft | 428 kts | 304° |
| 2026-05-04 17:45 | 49.03190 | 14.99783 | 35887 ft | 429 kts | 304° |
| 2026-05-04 17:45 | 49.04906 | 14.96033 | 35895 ft | 430 kts | 304° |
| 2026-05-04 17:45 | 49.08218 | 14.88781 | 35909 ft | 430 kts | 303° |
| 2026-05-04 17:46 | 49.11610 | 14.81331 | 35925 ft | 430 kts | 303° |
| 2026-05-04 17:46 | 49.14996 | 14.73870 | 35930 ft | 430 kts | 303° |
| 2026-05-04 17:47 | 49.18386 | 14.66380 | 35928 ft | 431 kts | 303° |
| 2026-05-04 17:47 | 49.21772 | 14.58881 | 35927 ft | 431 kts | 303° |
| 2026-05-04 17:48 | 49.25179 | 14.51315 | 35930 ft | 431 kts | 303° |
| 2026-05-04 17:48 | 49.28562 | 14.43777 | 35930 ft | 431 kts | 303° |
| 2026-05-04 17:49 | 49.31941 | 14.36233 | 35932 ft | 431 kts | 303° |
| 2026-05-04 17:49 | 49.35318 | 14.28668 | 35926 ft | 431 kts | 302° |
| 2026-05-04 17:50 | 49.38681 | 14.21111 | 35930 ft | 431 kts | 302° |
| 2026-05-04 17:50 | 49.42047 | 14.13528 | 35929 ft | 431 kts | 302° |
| 2026-05-04 17:51 | 49.45390 | 14.05971 | 35933 ft | 431 kts | 302° |
| 2026-05-04 17:51 | 49.48752 | 13.98354 | 35930 ft | 431 kts | 302° |
| 2026-05-04 17:52 | 49.52099 | 13.90752 | 35932 ft | 431 kts | 302° |
| 2026-05-04 17:52 | 49.55449 | 13.83118 | 35931 ft | 431 kts | 302° |
| 2026-05-04 17:53 | 49.58787 | 13.75488 | 35933 ft | 431 kts | 302° |
| 2026-05-04 17:53 | 49.62140 | 13.67803 | 35933 ft | 431 kts | 301° |
| 2026-05-04 17:54 | 49.65465 | 13.60163 | 35933 ft | 430 kts | 301° |
| 2026-05-04 17:54 | 49.68784 | 13.52511 | 35930 ft | 430 kts | 301° |
| 2026-05-04 17:55 | 49.72101 | 13.44840 | 35926 ft | 430 kts | 301° |
| 2026-05-04 17:55 | 49.75412 | 13.37165 | 35927 ft | 431 kts | 301° |
| 2026-05-04 17:56 | 49.78713 | 13.29489 | 35931 ft | 430 kts | 300° |
| 2026-05-04 17:56 | 49.82006 | 13.21808 | 35931 ft | 431 kts | 300° |
| 2026-05-04 17:57 | 49.85304 | 13.14092 | 35931 ft | 430 kts | 300° |
| 2026-05-04 17:57 | 49.88590 | 13.06388 | 35930 ft | 431 kts | 300° |
| 2026-05-04 17:58 | 49.91877 | 12.98655 | 35936 ft | 431 kts | 300° |
| 2026-05-04 17:58 | 49.95158 | 12.90915 | 35941 ft | 431 kts | 300° |
| 2026-05-04 17:59 | 49.98428 | 12.83177 | 35951 ft | 430 kts | 300° |
| 2026-05-04 18:00 | 50.03337 | 12.71518 | 35956 ft | 431 kts | 300° |
| 2026-05-04 18:00 | 50.06593 | 12.63756 | 35951 ft | 431 kts | 300° |
| 2026-05-04 18:01 | 50.09856 | 12.55955 | 35947 ft | 431 kts | 300° |
| 2026-05-04 18:01 | 50.13198 | 12.47937 | 35943 ft | 431 kts | 300° |
| 2026-05-04 18:02 | 50.17688 | 12.35646 | 35940 ft | 428 kts | 292° |
| 2026-05-04 18:02 | 50.19887 | 12.27097 | 35939 ft | 426 kts | 286° |
| 2026-05-04 18:03 | 50.21503 | 12.18176 | 35942 ft | 425 kts | 281° |
| 2026-05-04 18:03 | 50.22906 | 12.09291 | 35943 ft | 425 kts | 281° |
| 2026-05-04 18:04 | 50.24313 | 12.00315 | 35948 ft | 425 kts | 281° |
| 2026-05-04 18:05 | 50.26408 | 11.86881 | 35961 ft | 425 kts | 281° |
| 2026-05-04 18:05 | 50.27929 | 11.77062 | 35958 ft | 425 kts | 281° |
| 2026-05-04 18:06 | 50.30148 | 11.62597 | 35962 ft | 424 kts | 281° |
| 2026-05-04 18:06 | 50.31259 | 11.55250 | 35956 ft | 423 kts | 281° |
| 2026-05-04 18:07 | 50.32596 | 11.46263 | 35948 ft | 423 kts | 281° |
| 2026-05-04 18:07 | 50.34000 | 11.36771 | 35941 ft | 422 kts | 281° |